This is the latest recevied weather packets stored in our database for station/object F6JSP-13. If no packets are shown the sender has not sent any weather packets the latest 10 day(s).
| Time | Temp. | Humidity | Pressure | Rain* | Wind** | Luminosity | Snow |
|---|---|---|---|---|---|---|---|
| 1777507204 | 17.78° C | 58% | 1010.9 hPa | 0 mm | - | 0 W/m² | - |
| 1777506305 | 18.33° C | 57% | 1011.2 hPa | 0 mm | - | 0 W/m² | - |
| 1777505105 | 18.33° C | 57% | 1011 hPa | 0 mm | - | 0 W/m² | - |
| 1777504505 | 18.33° C | 57% | 1010.9 hPa | 0 mm | - | 0 W/m² | - |
| 1777502704 | 18.89° C | 57% | 1010.8 hPa | 0 mm | - | 0 W/m² | - |
| 1777500305 | 18.89° C | 57% | 1010.9 hPa | 0 mm | - | 0 W/m² | - |
| 1777500004 | 18.89° C | 58% | 1010.9 hPa | 0 mm | - | 0 W/m² | - |
| 1777499104 | 18.89° C | 58% | 1010.6 hPa | 0 mm | - | 0 W/m² | - |
| 1777492506 | 20.56° C | 61% | 1009.8 hPa | 0 mm | - | 0 W/m² | - |
| 1777492207 | 20.56° C | 62% | 1010 hPa | 0 mm | - | 0 W/m² | - |
| 1777491606 | 20.56° C | 62% | 1009.8 hPa | 0 mm | - | 0 W/m² | - |
| 1777490106 | 21.11° C | 60% | 1009.2 hPa | 0 mm | - | 0 W/m² | - |
| 1777489507 | 21.67° C | 59% | 1009 hPa | 0 mm | - | 1 W/m² | - |
| 1777489206 | 21.67° C | 59% | 1009.2 hPa | 0 mm | - | 4 W/m² | - |
| 1777485906 | 23.33° C | 53% | 1008.9 hPa | 0 mm | - | 43 W/m² | - |
| 1777481106 | 23.89° C | 51% | 1008.8 hPa | 0 mm | - | 127 W/m² | - |
| 1777480807 | 23.89° C | 50% | 1008.7 hPa | 0 mm | - | 125 W/m² | - |
| 1777479606 | 23.89° C | 50% | 1008.5 hPa | 0 mm | - | 138 W/m² | - |
| 1777478706 | 24.44° C | 50% | 1008.4 hPa | 0 mm | - | 186 W/m² | - |
| 1777477207 | 24.44° C | 48% | 1008.4 hPa | 0 mm | - | 247 W/m² | - |
| 1777475407 | 24.44° C | 47% | 1008.7 hPa | 0 mm | - | 306 W/m² | - |
| 1777474506 | 24.44° C | 48% | 1008.4 hPa | 0 mm | - | 511 W/m² | - |
| 1777473007 | 23.89° C | 50% | 1008.7 hPa | 0 mm | - | 248 W/m² | - |
| 1777471808 | 23.89° C | 49% | 1008.7 hPa | 0 mm | - | 365 W/m² | - |
| 1777471506 | 24.44° C | 49% | 1008.6 hPa | 0 mm | - | 278 W/m² | - |
* Rain latest hour (hover to see other rain measurements)
** Current wind speed in m/s (hover to see current wind gust speed)